Time;durP1;ratioP1;P1;durP2;ratioP2;P2;SDS_P1;SDS_P2;PMS_P1;PMS_P2;Temp;Humidity;BMP_temperature;BMP_pressure;BME280_temperature;BME280_humidity;BME280_pressure;Samples;Min_cycle;Max_cycle;Signal;HPM_P1;HPM_P2
2022/08/04 00:00:07;;;;;;;6.33;3.20;;;27.90;33.50;;;;;;4964688;28;20406;-41
2022/08/04 00:02:48;;;;;;;8.30;2.93;;;27.80;33.50;;;;;;4995513;28;20399;-42
2022/08/04 00:05:52;;;;;;;4.40;2.93;;;27.70;33.70;;;;;;4997169;28;20430;-42
2022/08/04 00:08:31;;;;;;;4.60;3.37;;;27.70;33.90;;;;;;4993679;28;20494;-42
2022/08/04 00:10:59;;;;;;;5.73;3.73;;;27.60;33.90;;;;;;4995153;28;20448;-40
2022/08/04 00:13:29;;;;;;;4.57;3.50;;;27.50;34.00;;;;;;4995154;28;20488;-42
2022/08/04 00:16:07;;;;;;;5.73;3.80;;;27.40;34.20;;;;;;4994794;28;20450;-41
2022/08/04 00:18:41;;;;;;;6.70;3.90;;;27.40;34.20;;;;;;4995124;28;20414;-40
2022/08/04 00:21:11;;;;;;;10.13;3.70;;;27.30;34.00;;;;;;4994936;28;20399;-41
2022/08/04 00:23:38;;;;;;;5.27;3.90;;;27.30;34.00;;;;;;4994254;28;20403;-42
2022/08/04 00:26:04;;;;;;;7.70;3.57;;;27.30;34.10;;;;;;4994882;28;20793;-42
2022/08/04 00:28:31;;;;;;;4.47;3.10;;;27.30;34.10;;;;;;4994913;28;20407;-41
2022/08/04 00:30:57;;;;;;;5.77;3.90;;;27.30;34.00;;;;;;4995063;28;20406;-41
2022/08/04 00:33:23;;;;;;;10.50;4.13;;;27.20;34.70;;;;;;4994676;28;20433;-42
2022/08/04 00:35:49;;;;;;;3.70;2.70;;;27.20;34.10;;;;;;4994300;28;20453;-40
2022/08/04 00:38:16;;;;;;;8.40;4.07;;;27.20;33.90;;;;;;4994512;28;20402;-41
2022/08/04 00:41:03;;;;;;;5.80;3.77;;;27.20;34.20;;;;;;4994651;28;20407;-41
2022/08/04 00:43:49;;;;;;;5.60;3.57;;;27.20;34.10;;;;;;4994591;28;20497;-42
2022/08/04 00:46:45;;;;;;;4.83;3.10;;;27.20;34.30;;;;;;4994205;28;20798;-41
2022/08/04 00:49:43;;;;;;;3.93;3.33;;;27.10;34.50;;;;;;4994385;28;20461;-42
2022/08/04 00:52:35;;;;;;;8.17;3.80;;;27.10;34.50;;;;;;4941147;28;20476;-41
2022/08/04 00:55:08;;;;;;;5.40;3.80;;;27.00;34.70;;;;;;4993968;28;20481;-43
2022/08/04 00:57:51;;;;;;;10.33;3.80;;;27.00;34.90;;;;;;4994084;28;20403;-42
2022/08/04 01:00:18;;;;;;;4.93;4.20;;;26.90;34.60;;;;;;4994233;28;20421;-41
2022/08/04 01:03:13;;;;;;;4.63;3.63;;;26.80;34.70;;;;;;4994124;28;20458;-41
2022/08/04 01:06:17;;;;;;;5.53;3.70;;;26.70;34.80;;;;;;4993899;28;20449;-42
2022/08/04 01:09:24;;;;;;;4.53;3.90;;;26.70;34.90;;;;;;4964061;28;20427;-42
2022/08/04 01:12:12;;;;;;;5.27;4.50;;;26.70;34.70;;;;;;4993884;28;20418;-39
2022/08/04 01:15:03;;;;;;;4.47;3.57;;;26.70;34.80;;;;;;4994658;28;20545;-41
2022/08/04 01:17:35;;;;;;;4.70;3.80;;;26.70;35.00;;;;;;4994724;28;20961;-42
2022/08/04 01:20:09;;;;;;;4.47;3.57;;;26.60;35.20;;;;;;4994758;28;20438;-40
2022/08/04 01:22:53;;;;;;;5.50;3.57;;;26.60;35.30;;;;;;4993821;28;20417;-40
2022/08/04 01:25:34;;;;;;;4.87;3.93;;;26.50;35.30;;;;;;4993792;28;21045;-41
2022/08/04 01:28:22;;;;;;;5.43;3.50;;;26.50;35.30;;;;;;4993626;28;20874;-41
2022/08/04 01:30:53;;;;;;;5.50;4.47;;;26.50;35.30;;;;;;4993596;28;20418;-41
2022/08/04 01:33:22;;;;;;;7.80;4.10;;;26.50;35.20;;;;;;4993384;28;20418;-40
2022/08/04 01:35:58;;;;;;;3.93;3.13;;;26.40;35.40;;;;;;4992923;28;20462;-41
2022/08/04 01:38:27;;;;;;;6.83;4.50;;;26.40;35.60;;;;;;4993825;28;20485;-41
2022/08/04 01:40:59;;;;;;;5.40;3.90;;;26.40;35.90;;;;;;4994134;28;20759;-42
2022/08/04 01:43:28;;;;;;;5.00;3.80;;;26.30;35.80;;;;;;4994210;28;20498;-41
2022/08/04 01:46:02;;;;;;;5.93;4.37;;;26.30;35.90;;;;;;4994753;28;20534;-41
2022/08/04 01:48:29;;;;;;;5.43;4.73;;;26.30;35.90;;;;;;4994756;28;20505;-41
2022/08/04 01:51:04;;;;;;;5.47;4.30;;;26.30;35.80;;;;;;4993477;28;20418;-40
2022/08/04 01:53:33;;;;;;;3.50;3.20;;;26.30;36.00;;;;;;4993820;28;20402;-41
2022/08/04 01:56:01;;;;;;;4.67;4.10;;;26.20;36.10;;;;;;4992852;28;20466;-40
2022/08/04 01:58:29;;;;;;;5.17;3.93;;;26.20;36.00;;;;;;4993451;28;20498;-40
2022/08/04 02:01:01;;;;;;;4.77;3.60;;;26.10;36.00;;;;;;4992075;28;20518;-40
2022/08/04 02:03:27;;;;;;;6.40;4.70;;;26.10;36.00;;;;;;4993100;28;20442;-42
2022/08/04 02:06:15;;;;;;;5.27;3.80;;;26.10;35.90;;;;;;4992715;28;20533;-39
2022/08/04 02:09:03;;;;;;;4.23;3.70;;;26.10;36.20;;;;;;4993532;28;20489;-42
2022/08/04 02:11:29;;;;;;;4.80;4.30;;;26.00;36.40;;;;;;4994114;28;20386;-40
2022/08/04 02:14:39;;;;;;;4.67;3.90;;;25.90;36.30;;;;;;4993036;28;20461;-41
2022/08/04 02:17:14;;;;;;;5.53;4.70;;;25.90;36.20;;;;;;4993868;28;20414;-41
2022/08/04 02:19:57;;;;;;;5.50;4.17;;;25.90;36.10;;;;;;4994452;28;20417;-41
2022/08/04 02:22:26;;;;;;;4.97;4.17;;;25.80;36.20;;;;;;4993537;28;20410;-42
2022/08/04 02:25:06;;;;;;;5.10;4.03;;;25.80;36.00;;;;;;4992873;28;20461;-41
2022/08/04 02:27:49;;;;;;;5.17;4.67;;;25.80;36.30;;;;;;4992767;28;20402;-41
2022/08/04 02:30:18;;;;;;;5.63;4.00;;;25.80;36.30;;;;;;4994190;28;20400;-41
2022/08/04 02:32:45;;;;;;;5.67;4.80;;;25.70;36.50;;;;;;4995196;28;20413;-41
2022/08/04 02:35:19;;;;;;;5.47;4.40;;;25.70;36.50;;;;;;4995208;28;20485;-42
2022/08/04 02:37:52;;;;;;;4.77;3.63;;;25.60;36.80;;;;;;4995735;28;20406;-43
2022/08/04 02:40:20;;;;;;;5.53;4.37;;;25.60;36.80;;;;;;4994376;28;20482;-41
2022/08/04 02:42:48;;;;;;;6.53;4.90;;;25.50;36.90;;;;;;4994985;28;20414;-40
2022/08/04 02:45:18;;;;;;;5.90;4.57;;;25.50;37.00;;;;;;4995784;28;20426;-42
2022/08/04 02:47:45;;;;;;;6.57;4.27;;;25.50;36.90;;;;;;4999022;28;20410;-41
2022/08/04 02:50:13;;;;;;;6.30;4.30;;;25.50;36.80;;;;;;4999053;28;20781;-42
2022/08/04 02:52:42;;;;;;;4.20;3.80;;;25.50;36.70;;;;;;4997010;28;20446;-39
2022/08/04 02:55:10;;;;;;;5.10;3.83;;;25.50;36.70;;;;;;4997822;28;20468;-41
2022/08/04 02:57:38;;;;;;;5.73;3.93;;;25.50;36.70;;;;;;4997374;28;20762;-41
2022/08/04 03:00:07;;;;;;;4.90;4.00;;;25.50;36.70;;;;;;4998982;28;20434;-40
2022/08/04 03:03:07;;;;;;;5.50;4.27;;;25.40;36.70;;;;;;4999472;28;20410;-41
2022/08/04 03:05:51;;;;;;;4.60;3.90;;;25.40;37.00;;;;;;4997081;28;20937;-40
2022/08/04 03:08:41;;;;;;;4.90;4.00;;;25.40;37.10;;;;;;4999471;28;20442;-40
2022/08/04 03:11:21;;;;;;;5.27;4.77;;;25.30;37.00;;;;;;4997665;28;20775;-41
2022/08/04 03:14:02;;;;;;;5.03;4.53;;;25.30;37.00;;;;;;4998398;28;20444;-42
2022/08/04 03:16:49;;;;;;;5.73;5.10;;;25.30;37.50;;;;;;4996930;28;20984;-42
2022/08/04 03:19:33;;;;;;;6.07;4.90;;;25.20;37.80;;;;;;4998097;28;20486;-41
2022/08/04 03:22:17;;;;;;;5.37;4.43;;;25.20;37.90;;;;;;4998695;28;20464;-41
2022/08/04 03:24:46;;;;;;;6.20;5.60;;;25.10;37.90;;;;;;4997504;28;20407;-41
2022/08/04 03:27:29;;;;;;;5.53;4.60;;;25.10;37.70;;;;;;4995903;28;20414;-41
2022/08/04 03:30:06;;;;;;;4.83;3.70;;;25.10;37.70;;;;;;4995941;28;20415;-40
2022/08/04 03:33:13;;;;;;;6.40;5.17;;;25.10;37.60;;;;;;4996052;28;20501;-40
2022/08/04 03:36:38;;;;;;;5.30;4.80;;;25.10;37.70;;;;;;4997608;28;20462;-40
2022/08/04 03:39:27;;;;;;;4.87;4.13;;;25.10;37.70;;;;;;4937784;29;20452;-41
2022/08/04 03:42:20;;;;;;;5.60;4.73;;;25.10;37.50;;;;;;4935501;29;20397;-40
2022/08/04 03:45:14;;;;;;;8.80;4.60;;;25.00;37.60;;;;;;4936926;29;20421;-40
2022/08/04 03:47:54;;;;;;;5.70;4.30;;;25.00;37.80;;;;;;4935126;29;20759;-40
2022/08/04 03:53:07;;;;;;;7.33;4.90;;;25.00;37.80;;;;;;4936453;29;20413;-39
2022/08/04 03:53:42;;;;;;;6.27;4.80;;;25.00;37.80;;;;;;4935171;29;20421;-40
2022/08/04 03:56:20;;;;;;;6.07;5.50;;;24.90;38.00;;;;;;4935732;29;20472;-40
2022/08/04 03:59:11;;;;;;;5.80;4.50;;;24.90;37.80;;;;;;4936689;29;20405;-40
2022/08/04 04:01:45;;;;;;;7.30;4.60;;;25.00;37.80;;;;;;4935237;29;20826;-41
2022/08/04 04:04:25;;;;;;;4.90;4.50;;;25.00;38.10;;;;;;4935048;29;20936;-41
2022/08/04 04:07:00;;;;;;;5.73;4.53;;;24.90;38.10;;;;;;4934861;29;20433;-39
2022/08/04 04:09:53;;;;;;;6.20;4.00;;;25.00;38.20;;;;;;4963154;28;20440;-40
2022/08/04 04:12:23;;;;;;;8.67;4.40;;;25.00;38.10;;;;;;4995325;28;20750;-40
2022/08/04 04:14:58;;;;;;;5.30;3.67;;;25.00;38.30;;;;;;4994787;28;20537;-40
2022/08/04 04:17:56;;;;;;;5.73;4.50;;;25.00;38.10;;;;;;4994845;28;20878;-40
2022/08/04 04:20:54;;;;;;;5.57;5.00;;;25.00;38.50;;;;;;4995247;28;20405;-40
2022/08/04 04:23:56;;;;;;;6.13;4.30;;;25.00;38.80;;;;;;4970502;28;20762;-39
2022/08/04 04:26:46;;;;;;;5.47;4.23;;;25.00;38.80;;;;;;4990284;28;20434;-39
2022/08/04 04:29:33;;;;;;;5.37;4.57;;;25.10;38.90;;;;;;4994638;28;20491;-39
2022/08/04 04:32:11;;;;;;;7.23;5.40;;;25.00;38.80;;;;;;4994394;28;20475;-38
2022/08/04 04:34:45;;;;;;;7.03;5.60;;;25.10;38.60;;;;;;4994808;28;20445;-41
2022/08/04 04:37:29;;;;;;;5.97;4.63;;;25.20;38.50;;;;;;4996148;28;20402;-41
2022/08/04 04:40:31;;;;;;;7.83;5.10;;;25.20;38.40;;;;;;4994480;28;20405;-41
2022/08/04 04:43:39;;;;;;;7.73;5.87;;;25.30;38.60;;;;;;4995568;28;20774;-41
2022/08/04 04:46:22;;;;;;;7.40;5.43;;;25.40;38.50;;;;;;4965941;28;20434;-40
2022/08/04 04:49:11;;;;;;;5.93;5.23;;;25.50;38.00;;;;;;4994469;28;20379;-41
2022/08/04 04:51:47;;;;;;;7.27;4.63;;;25.50;37.80;;;;;;4994300;28;20434;-41
2022/08/04 04:54:25;;;;;;;10.07;5.80;;;25.60;37.70;;;;;;4994131;28;20491;-41
2022/08/04 04:57:34;;;;;;;6.63;4.20;;;25.70;37.60;;;;;;4994117;28;20449;-41
2022/08/04 05:00:11;;;;;;;6.17;5.20;;;25.90;37.50;;;;;;4994259;28;20406;-41
2022/08/04 05:02:49;;;;;;;3.70;3.03;;;25.90;37.30;;;;;;4994081;28;20383;-41
2022/08/04 05:05:18;;;;;;;5.17;4.10;;;26.00;37.50;;;;;;4994214;28;20473;-41
2022/08/04 05:08:02;;;;;;;6.63;3.67;;;26.10;37.30;;;;;;4994025;28;20484;-41
2022/08/04 05:10:49;;;;;;;7.60;4.10;;;26.20;37.20;;;;;;4994087;28;20407;-41
2022/08/04 05:13:38;;;;;;;7.80;4.80;;;26.30;37.20;;;;;;4993847;28;20419;-41
2022/08/04 05:16:13;;;;;;;6.83;4.10;;;26.40;37.40;;;;;;4993561;28;20505;-41
2022/08/04 05:18:41;;;;;;;6.00;4.23;;;26.50;37.20;;;;;;4993881;28;20407;-41
2022/08/04 05:21:20;;;;;;;4.43;3.80;;;26.60;37.10;;;;;;4993689;28;20485;-41
2022/08/04 05:23:50;;;;;;;3.60;3.30;;;26.70;37.20;;;;;;4993721;28;20401;-41
2022/08/04 05:26:20;;;;;;;4.53;3.53;;;26.80;36.40;;;;;;4993412;28;20520;-41
2022/08/04 05:28:56;;;;;;;3.87;2.70;;;26.90;36.40;;;;;;4993662;28;20429;-41
2022/08/04 05:31:33;;;;;;;5.27;4.27;;;27.10;36.60;;;;;;4993693;28;20410;-41
2022/08/04 05:34:27;;;;;;;5.20;2.83;;;27.30;36.00;;;;;;4993622;28;20395;-41
2022/08/04 05:37:06;;;;;;;4.80;3.47;;;27.40;35.40;;;;;;4971348;28;20446;-41
2022/08/04 05:39:37;;;;;;;4.27;3.07;;;27.50;35.20;;;;;;4993835;28;20405;-42
2022/08/04 05:42:05;;;;;;;7.20;3.63;;;27.60;34.90;;;;;;4993539;28;20410;-42
2022/08/04 05:44:32;;;;;;;3.40;3.10;;;27.70;34.80;;;;;;4993253;28;20449;-41
2022/08/04 05:46:59;;;;;;;4.00;3.00;;;27.80;34.00;;;;;;4993359;28;20431;-41
2022/08/04 05:49:27;;;;;;;3.30;2.60;;;28.00;34.40;;;;;;4993633;28;20806;-41
2022/08/04 05:51:58;;;;;;;4.60;4.20;;;28.00;33.70;;;;;;4993200;28;20917;-42
2022/08/04 05:54:25;;;;;;;3.73;2.47;;;28.20;34.10;;;;;;4993260;28;20398;-41
2022/08/04 05:56:53;;;;;;;3.30;2.60;;;28.30;33.60;;;;;;4994042;28;21013;-42
2022/08/04 05:59:20;;;;;;;3.87;2.63;;;28.40;33.50;;;;;;4994598;28;20410;-43
2022/08/04 06:01:47;;;;;;;4.20;3.10;;;28.50;33.70;;;;;;4994400;28;20411;-42
2022/08/04 06:04:14;;;;;;;4.57;3.23;;;28.60;33.10;;;;;;4993661;28;20411;-42
2022/08/04 06:06:43;;;;;;;7.40;3.77;;;28.70;33.20;;;;;;4993015;28;20437;-41
2022/08/04 06:09:10;;;;;;;4.30;3.10;;;28.80;32.40;;;;;;4991670;28;20914;-41
2022/08/04 06:11:38;;;;;;;4.00;3.13;;;28.90;32.20;;;;;;4993025;28;20441;-41
2022/08/04 06:14:08;;;;;;;4.67;3.43;;;28.90;32.00;;;;;;4992934;28;20767;-41
2022/08/04 06:16:42;;;;;;;4.07;2.83;;;29.10;32.90;;;;;;4994421;28;20461;-41
2022/08/04 06:19:12;;;;;;;4.20;3.07;;;29.20;32.50;;;;;;4996071;28;20847;-41
2022/08/04 06:21:42;;;;;;;4.50;2.93;;;29.30;32.20;;;;;;4995104;28;20496;-41
2022/08/04 06:24:11;;;;;;;3.73;3.23;;;29.30;32.10;;;;;;4993388;28;20402;-41
2022/08/04 06:26:39;;;;;;;6.33;3.70;;;29.40;32.00;;;;;;4992446;28;20446;-41
2022/08/04 06:29:14;;;;;;;5.20;3.30;;;29.50;31.50;;;;;;4992722;28;20810;-40
2022/08/04 06:31:57;;;;;;;5.50;3.00;;;29.60;31.00;;;;;;4992803;28;20394;-41
2022/08/04 06:34:24;;;;;;;4.13;3.30;;;29.70;31.30;;;;;;4993811;28;20414;-42
2022/08/04 06:36:52;;;;;;;3.23;2.67;;;29.80;31.40;;;;;;4995481;28;20778;-42
2022/08/04 06:39:20;;;;;;;4.43;3.30;;;29.80;31.20;;;;;;4995367;28;20425;-41
2022/08/04 06:41:47;;;;;;;3.50;2.90;;;29.90;31.10;;;;;;4995015;28;20414;-41
2022/08/04 06:44:14;;;;;;;4.00;2.87;;;30.00;31.70;;;;;;4992632;28;20848;-41
2022/08/04 06:46:42;;;;;;;3.60;3.10;;;30.10;32.00;;;;;;4992336;28;20488;-42
2022/08/04 06:49:09;;;;;;;6.23;2.87;;;30.20;31.60;;;;;;4992438;28;20421;-41
2022/08/04 06:51:37;;;;;;;3.70;3.30;;;30.30;30.60;;;;;;4994831;28;20427;-41
2022/08/04 06:54:04;;;;;;;5.03;3.13;;;30.40;30.60;;;;;;4992480;28;20921;-42
2022/08/04 06:56:32;;;;;;;4.30;3.17;;;30.50;30.90;;;;;;4993058;28;20469;-42
2022/08/04 06:59:00;;;;;;;3.27;2.70;;;30.50;30.80;;;;;;4993280;28;20429;-42
2022/08/04 07:01:28;;;;;;;4.63;2.63;;;30.70;30.80;;;;;;4993414;28;20500;-43
2022/08/04 07:03:54;;;;;;;4.53;2.90;;;30.80;30.90;;;;;;4995675;28;20411;-42
2022/08/04 07:06:21;;;;;;;3.97;2.50;;;30.90;29.40;;;;;;4994892;28;20438;-43
2022/08/04 07:08:48;;;;;;;7.97;3.20;;;31.00;30.10;;;;;;4995387;28;20465;-42
2022/08/04 07:11:15;;;;;;;4.10;3.00;;;31.00;29.90;;;;;;4994513;28;20418;-42
2022/08/04 07:13:42;;;;;;;4.10;3.00;;;31.10;30.80;;;;;;4994615;28;20509;-42
2022/08/04 07:16:12;;;;;;;4.10;3.23;;;31.30;30.70;;;;;;4993155;28;20476;-41
2022/08/04 07:18:38;;;;;;;5.20;2.80;;;31.40;29.70;;;;;;4992880;28;20807;-41
2022/08/04 07:21:03;;;;;;;4.73;3.27;;;31.50;30.40;;;;;;4992702;28;20771;-42
2022/08/04 07:23:30;;;;;;;3.53;2.60;;;31.60;30.20;;;;;;4992501;28;20171;-42
2022/08/04 07:25:57;;;;;;;4.50;3.50;;;31.70;29.50;;;;;;4992253;28;20956;-42
2022/08/04 07:28:28;;;;;;;4.43;3.17;;;31.80;28.50;;;;;;4992797;28;20779;-42
2022/08/04 07:30:57;;;;;;;4.40;2.80;;;31.90;29.20;;;;;;4993675;28;20431;-42
2022/08/04 07:33:24;;;;;;;3.30;2.80;;;32.00;29.10;;;;;;4995645;28;20425;-41
2022/08/04 07:35:55;;;;;;;3.27;2.77;;;32.10;29.20;;;;;;4996762;28;21016;-41
2022/08/04 07:38:22;;;;;;;3.60;3.17;;;32.10;29.10;;;;;;4997331;28;20414;-42
2022/08/04 07:40:48;;;;;;;3.80;2.53;;;32.20;28.80;;;;;;4997135;28;20414;-42
2022/08/04 07:43:16;;;;;;;3.80;2.97;;;32.30;29.00;;;;;;4996892;28;20492;-42
2022/08/04 07:45:42;;;;;;;6.80;2.83;;;32.40;29.00;;;;;;4996105;28;20806;-42
2022/08/04 07:48:09;;;;;;;4.07;2.97;;;32.50;28.20;;;;;;4995731;28;20469;-42
2022/08/04 07:50:37;;;;;;;4.10;3.37;;;32.60;27.70;;;;;;4995669;28;20530;-42
2022/08/04 07:53:03;;;;;;;3.77;2.90;;;32.70;28.40;;;;;;4995587;28;21026;-41
2022/08/04 07:55:29;;;;;;;5.00;2.60;;;32.70;27.50;;;;;;4995290;28;20837;-42
2022/08/04 07:57:56;;;;;;;3.67;3.10;;;32.90;28.50;;;;;;4995317;28;20445;-42
2022/08/04 08:00:22;;;;;;;3.40;2.53;;;33.00;28.90;;;;;;4995412;28;20406;-42
2022/08/04 08:02:49;;;;;;;3.67;3.10;;;33.10;28.40;;;;;;4995322;28;20410;-42
2022/08/04 08:05:18;;;;;;;4.17;3.50;;;33.20;28.50;;;;;;4995104;28;21000;-42
2022/08/04 08:07:50;;;;;;;5.97;3.90;;;33.30;27.30;;;;;;4993753;28;20423;-42
2022/08/04 08:10:17;;;;;;;3.53;2.97;;;33.40;27.90;;;;;;4995196;28;20782;-42
2022/08/04 08:12:44;;;;;;;3.80;3.13;;;33.50;28.30;;;;;;4995185;28;20411;-42
2022/08/04 08:15:11;;;;;;;3.80;3.03;;;33.60;28.20;;;;;;4994941;28;20605;-42
2022/08/04 08:17:38;;;;;;;6.10;3.10;;;33.80;27.70;;;;;;4994969;28;20488;-39
2022/08/04 08:20:06;;;;;;;4.10;2.30;;;33.90;27.30;;;;;;4994915;28;20985;-42
2022/08/04 08:22:32;;;;;;;3.90;2.63;;;34.00;27.20;;;;;;4994906;28;20406;-41
2022/08/04 08:24:58;;;;;;;2.97;2.43;;;34.10;27.10;;;;;;4994966;28;20422;-40
2022/08/04 08:27:25;;;;;;;4.00;3.23;;;34.30;27.10;;;;;;4994667;28;20407;-41
2022/08/04 08:29:51;;;;;;;3.00;2.13;;;34.40;26.40;;;;;;4994741;28;20418;-40
2022/08/04 08:32:17;;;;;;;3.30;2.80;;;34.50;26.40;;;;;;4994704;28;20415;-41
2022/08/04 08:34:44;;;;;;;3.17;2.40;;;34.60;26.20;;;;;;4994566;28;21139;-41
2022/08/04 08:37:12;;;;;;;3.70;2.57;;;34.70;26.30;;;;;;4994652;28;20429;-41
2022/08/04 08:40:15;;;;;;;5.93;3.50;;;34.80;26.10;;;;;;4994644;28;20442;-41
2022/08/04 08:42:59;;;;;;;3.83;2.30;;;35.00;25.90;;;;;;4994512;28;20420;-41
2022/08/04 08:45:46;;;;;;;3.50;2.20;;;35.00;26.40;;;;;;4994355;28;20543;-41
2022/08/04 08:48:48;;;;;;;3.30;2.17;;;35.20;25.10;;;;;;4994467;28;20410;-42
2022/08/04 08:51:34;;;;;;;4.03;2.63;;;35.30;25.50;;;;;;4984168;28;20438;-41
2022/08/04 08:54:33;;;;;;;2.90;2.60;;;35.40;25.50;;;;;;4994347;28;20497;-42
2022/08/04 08:57:29;;;;;;;3.40;2.83;;;35.50;25.40;;;;;;4993913;28;20491;-42
2022/08/04 09:00:15;;;;;;;2.90;2.20;;;35.60;24.70;;;;;;4994273;28;20403;-43
2022/08/04 09:03:18;;;;;;;3.50;2.40;;;35.70;24.70;;;;;;4994343;28;20415;-41
2022/08/04 09:06:14;;;;;;;2.93;2.30;;;35.80;24.60;;;;;;4993921;28;20448;-43
2022/08/04 09:08:43;;;;;;;3.07;2.00;;;35.90;24.60;;;;;;4994055;28;20403;-41
2022/08/04 09:11:14;;;;;;;3.20;2.50;;;36.00;24.80;;;;;;4994003;28;20461;-43
2022/08/04 09:13:51;;;;;;;3.27;2.60;;;36.20;24.20;;;;;;4992780;28;20471;-41
2022/08/04 09:17:01;;;;;;;2.87;2.27;;;36.20;23.80;;;;;;4993561;28;20465;-42
2022/08/04 09:19:38;;;;;;;3.17;1.70;;;36.30;23.70;;;;;;4994100;28;20414;-42
2022/08/04 09:22:23;;;;;;;16.37;2.53;;;36.30;22.90;;;;;;4993851;28;20474;-41
2022/08/04 09:25:03;;;;;;;2.43;1.67;;;36.50;22.60;;;;;;4993704;28;20504;-42
2022/08/04 09:27:54;;;;;;;3.00;2.13;;;36.50;22.80;;;;;;4993470;28;20891;-41
2022/08/04 09:30:32;;;;;;;2.40;1.60;;;36.60;22.50;;;;;;4993889;28;20402;-42
2022/08/04 09:33:15;;;;;;;2.77;2.20;;;36.60;22.80;;;;;;4993729;28;20762;-40
2022/08/04 09:36:00;;;;;;;2.80;1.80;;;36.70;23.20;;;;;;4993472;28;20477;-42
2022/08/04 09:38:36;;;;;;;2.20;1.70;;;36.90;22.90;;;;;;4993558;28;20390;-41
2022/08/04 09:41:34;;;;;;;2.50;1.77;;;37.00;21.70;;;;;;4993651;28;20875;-41
2022/08/04 09:44:27;;;;;;;2.80;1.80;;;37.10;21.90;;;;;;4993606;28;20740;-42
2022/08/04 09:47:18;;;;;;;2.90;1.80;;;37.10;20.90;;;;;;4993257;28;20422;-42
2022/08/04 09:50:13;;;;;;;2.77;1.77;;;37.20;20.70;;;;;;4993322;28;20406;-42
2022/08/04 09:53:20;;;;;;;3.30;2.40;;;37.40;21.50;;;;;;4965424;28;20421;-43
2022/08/04 09:55:46;;;;;;;2.53;1.90;;;37.50;20.30;;;;;;4969019;28;20480;-41
2022/08/04 09:58:30;;;;;;;3.50;2.00;;;37.60;21.10;;;;;;4993220;28;20410;-43
2022/08/04 10:01:02;;;;;;;2.90;1.83;;;37.60;20.00;;;;;;4993121;28;20437;-41
2022/08/04 10:03:33;;;;;;;3.30;1.87;;;37.70;21.30;;;;;;4993413;28;20387;-42
2022/08/04 10:06:28;;;;;;;3.00;2.03;;;37.80;20.30;;;;;;4992863;28;20501;-42
2022/08/04 10:09:07;;;;;;;3.83;2.00;;;37.90;19.50;;;;;;4992907;28;20410;-43
2022/08/04 10:11:54;;;;;;;2.70;1.83;;;37.90;20.50;;;;;;4993293;28;20525;-42
2022/08/04 10:14:19;;;;;;;5.37;1.97;;;38.10;21.40;;;;;;4993035;28;20402;-42
2022/08/04 10:16:51;;;;;;;6.53;1.90;;;38.20;20.40;;;;;;4992599;28;20822;-41
2022/08/04 10:19:24;;;;;;;2.70;1.80;;;38.20;20.80;;;;;;4992880;28;20171;-43
2022/08/04 10:22:09;;;;;;;3.10;1.80;;;38.20;19.60;;;;;;4993081;28;20410;-41
2022/08/04 10:25:26;;;;;;;7.00;2.33;;;38.30;18.70;;;;;;4993070;28;20398;-42
2022/08/04 10:27:56;;;;;;;3.03;2.30;;;38.30;19.20;;;;;;4959409;28;20472;-42
2022/08/04 10:30:23;;;;;;;2.93;1.70;;;38.40;19.40;;;;;;4992893;28;20407;-42
2022/08/04 10:32:54;;;;;;;2.70;2.00;;;38.50;20.00;;;;;;4992733;28;20402;-42
2022/08/04 10:35:23;;;;;;;2.73;2.03;;;38.60;19.10;;;;;;4992544;28;20461;-41
2022/08/04 10:38:06;;;;;;;4.20;2.80;;;38.70;19.50;;;;;;4992729;28;20903;-41
2022/08/04 10:40:41;;;;;;;2.63;1.70;;;38.90;19.00;;;;;;4992556;28;20482;-42
2022/08/04 10:43:40;;;;;;;2.33;1.57;;;38.90;19.30;;;;;;4992648;28;20402;-42
2022/08/04 10:46:17;;;;;;;3.37;2.13;;;39.00;19.40;;;;;;4992377;28;20422;-40
2022/08/04 10:48:50;;;;;;;2.40;1.80;;;39.00;18.50;;;;;;4992642;28;20401;-41
2022/08/04 10:51:29;;;;;;;3.17;2.10;;;39.10;19.40;;;;;;4992576;28;20939;-43
2022/08/04 10:54:25;;;;;;;2.20;1.57;;;39.10;19.40;;;;;;4992796;28;20433;-42
2022/08/04 10:57:09;;;;;;;3.30;1.83;;;39.10;19.60;;;;;;4985910;28;20469;-41
2022/08/04 10:59:48;;;;;;;3.30;2.30;;;39.10;19.40;;;;;;4992440;28;20403;-41
2022/08/04 11:02:42;;;;;;;2.57;1.70;;;39.20;19.30;;;;;;4992781;28;20795;-43
2022/08/04 11:05:14;;;;;;;2.60;1.93;;;39.30;19.70;;;;;;4970467;28;20442;-43
2022/08/04 11:07:42;;;;;;;3.20;2.30;;;39.30;18.90;;;;;;4994960;28;20441;-42
2022/08/04 11:10:09;;;;;;;3.30;2.07;;;39.50;19.50;;;;;;4996234;28;20414;-41
2022/08/04 11:12:36;;;;;;;3.00;1.90;;;39.60;18.30;;;;;;4996331;28;20516;-43
2022/08/04 11:15:20;;;;;;;2.83;2.07;;;39.60;17.50;;;;;;4996056;28;20549;-41
2022/08/04 11:17:54;;;;;;;6.30;2.10;;;39.60;17.50;;;;;;4995854;28;20743;-42
2022/08/04 11:20:37;;;;;;;2.50;1.70;;;39.50;17.80;;;;;;4996140;28;20411;-42
2022/08/04 11:23:05;;;;;;;3.00;1.80;;;39.60;18.00;;;;;;4995956;28;20383;-41
2022/08/04 11:26:20;;;;;;;2.37;1.80;;;39.60;18.20;;;;;;4995802;28;20505;-41
2022/08/04 11:29:00;;;;;;;2.60;1.93;;;39.70;18.60;;;;;;4935736;29;20449;-42
2022/08/04 11:31:30;;;;;;;2.80;2.13;;;39.80;17.60;;;;;;4994650;28;20410;-41
2022/08/04 11:34:22;;;;;;;3.90;2.57;;;39.80;17.70;;;;;;4995874;28;20887;-43
2022/08/04 11:37:08;;;;;;;4.77;2.93;;;39.80;17.10;;;;;;4995504;28;20518;-42
2022/08/04 11:39:55;;;;;;;3.30;2.40;;;39.80;17.10;;;;;;4995739;28;20414;-42
2022/08/04 11:42:36;;;;;;;3.43;2.40;;;39.90;18.20;;;;;;4995679;28;20399;-44
2022/08/04 11:45:11;;;;;;;3.00;2.30;;;39.80;18.00;;;;;;4995784;28;20426;-41
2022/08/04 11:47:48;;;;;;;3.03;2.13;;;39.80;18.20;;;;;;4995633;28;20532;-43
2022/08/04 11:50:22;;;;;;;3.20;2.40;;;39.80;18.50;;;;;;4995546;28;20409;-41
2022/08/04 11:52:51;;;;;;;3.47;1.97;;;39.80;18.50;;;;;;4995453;28;20467;-42
2022/08/04 11:55:20;;;;;;;3.00;1.93;;;39.80;18.50;;;;;;4995002;28;20477;-42
2022/08/04 11:57:47;;;;;;;3.07;2.00;;;39.80;18.20;;;;;;4995220;28;20460;-41
2022/08/04 12:00:16;;;;;;;2.63;1.70;;;39.60;18.60;;;;;;4995302;28;20411;-44
2022/08/04 12:02:50;;;;;;;3.10;2.07;;;39.70;18.90;;;;;;4995418;28;20457;-43
2022/08/04 12:05:20;;;;;;;2.93;1.80;;;39.80;19.10;;;;;;4995134;28;20962;-42
2022/08/04 12:08:01;;;;;;;4.00;2.37;;;39.80;18.80;;;;;;4995185;28;20415;-41
2022/08/04 12:10:55;;;;;;;3.00;2.00;;;39.70;18.00;;;;;;4995188;28;20449;-41
2022/08/04 12:13:40;;;;;;;2.80;1.87;;;39.90;18.20;;;;;;4995072;28;20410;-41
2022/08/04 12:16:34;;;;;;;4.10;2.33;;;39.90;17.40;;;;;;4994673;28;20469;-42
2022/08/04 12:19:17;;;;;;;2.97;1.93;;;40.10;18.20;;;;;;4994232;28;20444;-43
2022/08/04 12:21:51;;;;;;;4.43;2.03;;;40.10;18.50;;;;;;4995054;28;20923;-40
2022/08/04 12:24:21;;;;;;;3.37;1.80;;;40.30;18.30;;;;;;4994813;28;20399;-44
2022/08/04 12:26:55;;;;;;;2.80;2.20;;;40.40;17.90;;;;;;4994439;28;20938;-42
2022/08/04 12:29:24;;;;;;;2.87;2.00;;;40.40;17.70;;;;;;4994957;28;20429;-41
2022/08/04 12:31:55;;;;;;;3.20;2.37;;;40.50;18.30;;;;;;4993696;28;20422;-43
2022/08/04 12:34:38;;;;;;;2.60;1.80;;;40.60;18.10;;;;;;4994767;28;20450;-41
2022/08/04 12:37:09;;;;;;;3.47;2.00;;;40.60;18.10;;;;;;4994219;28;20442;-44
2022/08/04 12:39:38;;;;;;;2.80;2.30;;;40.60;19.20;;;;;;4994655;28;20879;-43
2022/08/04 12:42:16;;;;;;;2.70;2.07;;;40.70;18.80;;;;;;4994518;28;20426;-42
2022/08/04 12:44:44;;;;;;;2.87;1.80;;;40.80;18.80;;;;;;4994467;28;20406;-42
2022/08/04 12:47:14;;;;;;;3.37;2.20;;;40.90;17.90;;;;;;4994161;28;20915;-42
2022/08/04 12:49:46;;;;;;;3.40;2.57;;;41.00;18.30;;;;;;4994687;28;20748;-42
2022/08/04 12:52:15;;;;;;;2.63;2.07;;;41.00;18.50;;;;;;4994323;28;20410;-44
2022/08/04 12:54:44;;;;;;;3.40;2.60;;;40.90;18.10;;;;;;4994133;28;20907;-42
2022/08/04 12:57:12;;;;;;;2.73;1.60;;;40.90;18.00;;;;;;4994071;28;21126;-41
2022/08/04 12:59:39;;;;;;;3.30;2.00;;;40.90;17.80;;;;;;4994154;28;20422;-41
2022/08/04 13:02:13;;;;;;;3.33;2.27;;;41.00;18.10;;;;;;4994154;28;20846;-42
2022/08/04 13:04:42;;;;;;;2.70;2.00;;;41.00;18.10;;;;;;4994336;28;20415;-42
2022/08/04 13:07:23;;;;;;;3.47;2.20;;;41.00;17.80;;;;;;4993894;28;20489;-44
2022/08/04 13:09:50;;;;;;;2.80;2.00;;;41.00;17.20;;;;;;4994077;28;20411;-42
2022/08/04 13:12:28;;;;;;;3.50;2.40;;;41.00;17.10;;;;;;4993900;28;20402;-43
2022/08/04 13:15:05;;;;;;;2.80;1.97;;;41.00;17.30;;;;;;4993919;28;20458;-43
2022/08/04 13:17:50;;;;;;;2.83;2.20;;;41.20;17.50;;;;;;4994151;28;20390;-43
2022/08/04 13:20:23;;;;;;;2.67;1.93;;;41.20;17.70;;;;;;4993941;28;20882;-42
2022/08/04 13:22:49;;;;;;;2.60;2.00;;;41.40;17.10;;;;;;4994109;28;20419;-42
2022/08/04 13:25:16;;;;;;;6.57;2.20;;;41.40;17.50;;;;;;4993687;28;20493;-44
2022/08/04 13:27:47;;;;;;;3.30;2.20;;;41.60;16.60;;;;;;4993653;28;20175;-43
2022/08/04 13:30:17;;;;;;;2.90;2.57;;;41.60;16.20;;;;;;4993909;28;20398;-44
2022/08/04 13:32:44;;;;;;;2.87;2.37;;;41.60;16.30;;;;;;4993728;28;20406;-42
2022/08/04 13:35:12;;;;;;;2.80;2.03;;;41.60;16.00;;;;;;4993351;28;20467;-45